Latest Weather Observations for Laverton

IDW60801

Issued at 8:32 am WST Monday 20 April 2015 (issued every 30 minutes, with the page automatically refreshed every 10 minutes)

About weather observations | Map of weather stations | Latest weather observations for WA | Other Formats
Station Details ID: 012305 Name: LAVERTON AERO Lat: -28.61 Lon: 122.42 Height: 464.3 m
Data from the previous 72 hours. | See also: Recent months at Laverton
Date/Time
WST
Temp
°C
App
Temp
°C
Dew
Point
Rel
Hum
%
Delta-T
°C
Wind Press
QNH
hPa
Press
MSL
hPa
Rain
since 9 am
mm
Dir
 
Spd
km/h
Gust
km/h
Spd
kts
Gust
kts
20/08:30am 13.7 6.8 6.3 61 3.6 ENE 32 39 17 21 1029.3 1027.5 0.0
20/08:00am 12.9 7.2 6.9 67 2.9 ENE 26 37 14 20 1029.4 1027.6 0.0
20/07:30am 11.9 5.8 6.6 70 2.6 E 28 37 15 20 1029.3 1027.5 0.0
20/07:00am 11.2 6.6 6.7 74 2.2 E 20 32 11 17 1029.0 1027.2 0.0
20/06:30am 11.0 6.1 6.7 75 2.1 E 22 30 12 16 1028.8 1027.0 0.0
20/06:00am 11.0 6.5 6.9 76 2.0 E 20 26 11 14 1028.6 1026.7 0.0
20/05:30am 11.2 6.3 7.1 76 2.0 E 22 32 12 17 1028.6 1026.7 0.0
20/05:00am 11.4 6.6 7.5 77 1.9 E 22 28 12 15 1028.4 1026.5 0.0
20/04:30am 11.6 7.2 7.5 76 2.0 E 20 28 11 15 1028.5 1026.6 0.0
20/04:00am 12.1 7.0 7.8 75 2.1 E 24 32 13 17 1028.4 1026.5 0.0
20/03:30am 12.3 7.3 8.0 75 2.2 E 24 32 13 17 1028.2 1026.3 0.0
20/03:00am 12.4 8.2 8.3 76 2.1 E 20 26 11 14 1028.4 1026.5 0.0
20/02:30am 12.9 8.4 8.6 75 2.2 E 22 28 12 15 1028.7 1026.8 0.0
20/02:00am 13.0 8.9 8.7 75 2.2 E 20 26 11 14 1028.8 1027.0 0.0
20/01:30am 12.9 9.9 9.2 78 1.9 E 15 22 8 12 1029.0 1027.2 0.0
20/01:00am 13.1 10.1 9.2 77 2.0 E 15 17 8 9 1029.1 1027.3 0.0
20/12:30am 13.7 10.7 9.4 75 2.2 E 15 22 8 12 1029.1 1027.3 0.0
20/12:00am 13.9 10.5 9.3 74 2.4 E 17 19 9 10 1029.1 1027.3 0.0
 
Date/Time
WST
Temp
°C
App
Temp
°C
Dew
Point
Rel
Hum
%
Delta-T
°C
Wind Press
QNH
hPa
Press
MSL
hPa
Rain
since 9 am
mm
Dir
 
Spd
km/h
Gust
km/h
Spd
kts
Gust
kts
19/11:30pm 14.4 11.1 9.4 72 2.6 E 17 24 9 13 1029.5 1027.7 0.0
19/11:00pm 14.9 11.0 9.5 70 2.8 E 20 28 11 15 1029.6 1027.8 0.0
19/10:30pm 15.1 11.2 9.5 69 3.0 E 20 24 11 13 1029.9 1028.1 0.0
19/10:00pm 15.3 11.4 9.4 68 3.1 E 20 28 11 15 1030.0 1028.2 0.0
19/09:30pm 15.6 11.3 9.5 67 3.2 E 22 28 12 15 1030.2 1028.3 0.0
19/09:00pm 15.8 11.5 9.5 66 3.3 ESE 22 30 12 16 1030.3 1028.4 0.0
19/08:30pm 16.2 10.8 9.6 65 3.5 E 28 35 15 19 1030.0 1028.2 0.0
19/08:00pm 16.7 11.4 9.9 64 3.6 ESE 28 39 15 21 1029.8 1028.0 0.0
19/07:30pm 17.2 12.7 9.9 62 3.9 ESE 24 37 13 20 1029.6 1027.8 0.0
19/07:00pm 17.9 13.4 10.0 60 4.3 ESE 24 35 13 19 1029.2 1027.4 0.0
19/06:30pm 18.6 14.8 9.7 56 4.8 ESE 20 28 11 15 1029.0 1027.2 0.0
19/06:00pm 19.2 14.5 9.4 53 5.3 ESE 24 35 13 19 1028.7 1026.8 0.0
19/05:30pm 19.8 14.6 8.8 49 5.9 ESE 26 35 14 19 1028.1 1026.2 0.0
19/05:00pm 20.5 14.9 8.8 47 6.3 ESE 28 39 15 21 1027.5 1025.7 0.0
19/04:30pm 21.4 15.7 8.3 43 7.0 ESE 28 37 15 20 1027.3 1025.5 0.0
19/04:00pm 21.9 16.1 8.1 41 7.4 ESE 28 41 15 22 1027.4 1025.6 0.0
19/03:30pm 22.1 15.8 7.5 39 7.7 E 30 41 16 22 1027.4 1025.6 0.0
19/03:00pm 22.6 16.9 8.3 40 7.7 E 28 35 15 19 1027.5 1025.7 0.0
19/02:30pm 22.3 16.2 8.4 41 7.5 ESE 30 41 16 22 1027.7 1025.9 0.0
19/02:00pm 22.4 17.0 8.1 40 7.6 ESE 26 35 14 19 1027.9 1026.0 0.0
19/01:30pm 21.5 15.9 8.7 44 6.9 E 28 39 15 21 1027.9 1026.0 0.0
19/01:00pm 20.9 15.3 8.9 46 6.4 E 28 41 15 22 1028.2 1026.3 0.0
19/12:30pm 20.4 14.6 9.6 50 5.9 ESE 30 43 16 23 1028.4 1026.5 0.0
19/12:00pm 20.8 15.2 10.3 51 5.8 ESE 30 48 16 26 1028.8 1027.0 0.0
19/11:56am 20.5 14.8 9.7 50 5.9 E 30 48 16 26 1029.0 1027.2 0.0
19/11:30am 20.3 14.9 9.5 50 5.9 E 28 43 15 23 1029.2 1027.4 0.0
19/11:00am 19.7 14.0 9.9 53 5.3 E 30 43 16 23 1029.7 1027.9 0.0
19/10:30am 18.9 12.7 10.2 57 4.8 ENE 33 46 18 25 1029.8 1028.0 0.0
19/10:00am 18.4 11.8 10.0 58 4.5 ENE 35 44 19 24 1029.8 1028.0 0.0
19/09:30am 17.9 11.4 10.5 62 4.1 ENE 35 46 19 25 1029.6 1027.8 0.0
19/09:00am 17.0 10.4 10.1 64 3.7 ENE 35 46 19 25 1029.4 1027.6 0.0
19/08:30am 16.5 10.4 10.6 68 3.2 ENE 33 43 18 23 1029.2 1027.4 0.0
19/08:00am 15.4 9.0 10.8 74 2.5 E 35 50 19 27 1028.9 1027.1 0.0
19/07:30am 14.3 8.5 10.9 80 1.8 E 32 44 17 24 1028.7 1026.8 0.0
19/07:00am 13.3 7.9 10.8 85 1.3 E 30 39 16 21 1028.5 1026.6 0.0
19/06:30am 13.0 7.6 10.9 87 1.1 E 30 39 16 21 1028.1 1026.2 0.0
19/06:00am 12.7 6.3 10.8 88 1.0 E 35 48 19 26 1027.4 1025.6 0.0
19/05:30am 12.3 7.2 10.7 90 0.9 E 28 35 15 19 1027.4 1025.6 0.0
19/05:00am 12.3 7.2 10.5 89 0.9 E 28 37 15 20 1027.5 1025.7 0.0
19/04:30am 12.7 7.9 10.4 86 1.2 E 26 35 14 19 1027.2 1025.4 0.0
19/04:00am 13.0 7.7 9.8 81 1.7 E 28 35 15 19 1027.1 1025.3 0.0
19/03:30am 12.9 8.3 8.2 73 2.4 E 22 28 12 15 1027.0 1025.2 0.0
19/03:00am 13.5 9.2 7.9 69 2.8 ESE 20 28 11 15 1026.9 1025.1 0.0
19/02:30am 14.0 9.6 7.3 64 3.4 E 20 28 11 15 1026.7 1024.8 0.0
19/02:00am 13.7 9.4 7.2 65 3.2 E 19 24 10 13 1026.9 1025.1 0.0
19/01:30am 13.7 9.9 7.5 66 3.1 ENE 17 20 9 11 1027.2 1025.4 0.0
19/01:00am 14.1 10.6 7.4 64 3.4 ENE 15 17 8 9 1027.4 1025.6 0.0
19/12:30am 14.6 10.3 7.2 61 3.7 ENE 19 24 10 13 1027.2 1025.4 0.0
19/12:00am 15.0 11.1 7.1 59 4.0 E 17 22 9 12 1026.8 1024.9 0.0
 
Date/Time
WST
Temp
°C
App
Temp
°C
Dew
Point
Rel
Hum
%
Delta-T
°C
Wind Press
QNH
hPa
Press
MSL
hPa
Rain
since 9 am
mm
Dir
 
Spd
km/h
Gust
km/h
Spd
kts
Gust
kts
18/11:30pm 15.5 11.2 7.0 57 4.3 ESE 19 24 10 13 1026.7 1024.8 0.0
18/11:00pm 15.6 11.7 6.9 56 4.4 E 17 20 9 11 1027.0 1025.2 0.0
18/10:30pm 16.3 13.1 6.7 53 4.8 ESE 13 19 7 10 1026.9 1025.1 0.0
18/10:00pm 16.9 12.8 6.4 50 5.2 E 17 20 9 11 1026.9 1025.1 0.0
18/09:30pm 17.6 12.9 5.9 46 5.9 ESE 20 26 11 14 1026.8 1024.9 0.0
18/09:00pm 18.1 13.0 6.0 45 6.1 ESE 22 28 12 15 1026.6 1024.7 0.0
18/08:30pm 18.5 13.0 5.7 43 6.4 ESE 24 33 13 18 1026.5 1024.6 0.0
18/08:00pm 19.1 13.5 5.6 41 6.7 ESE 24 33 13 18 1026.0 1024.1 0.0
18/07:30pm 19.5 14.2 5.2 39 7.1 ESE 22 30 12 16 1025.8 1023.9 0.0
18/07:00pm 19.9 15.1 4.4 36 7.6 ESE 19 24 10 13 1025.4 1023.6 0.0
18/06:30pm 20.4 15.4 3.6 33 8.2 ESE 19 28 10 15 1025.2 1023.4 0.0
18/06:00pm 21.0 16.1 4.1 33 8.3 ESE 19 22 10 12 1024.7 1022.8 0.0
18/05:30pm 21.8 16.3 3.9 31 8.9 ESE 22 28 12 15 1024.4 1022.5 0.0
18/05:00pm 22.5 17.1 4.5 31 9.0 ESE 22 30 12 16 1024.1 1022.2 0.0
18/04:30pm 23.1 17.6 4.1 29 9.5 ESE 22 28 12 15 1023.7 1021.8 0.0
18/04:00pm 23.3 18.1 5.7 32 9.1 E 22 32 12 17 1023.5 1021.6 0.0
18/03:30pm 23.6 18.2 4.5 29 9.7 SE 22 30 12 16 1023.7 1021.8 0.0
18/03:00pm 24.2 19.5 5.1 29 9.8 SE 19 30 10 16 1023.4 1021.5 0.0
18/02:30pm 23.6 18.4 5.5 31 9.3 ESE 22 32 12 17 1023.5 1021.6 0.0
18/02:00pm 23.1 18.3 4.6 30 9.3 SE 19 32 10 17 1023.6 1021.7 0.0
18/01:30pm 22.8 17.9 5.3 32 9.0 ESE 20 32 11 17 1023.6 1021.7 0.0
18/01:00pm 22.4 17.9 4.0 30 9.1 SE 17 30 9 16 1023.8 1021.9 0.0
18/12:30pm 22.3 17.6 6.1 35 8.4 ESE 20 28 11 15 1023.9 1022.0 0.0
18/12:00pm 21.1 17.0 6.2 38 7.6 SE 17 24 9 13 1024.5 1022.6 0.0
18/11:30am 20.8 16.3 6.0 38 7.6 ESE 19 26 10 14 1024.8 1022.9 0.0
18/11:00am 20.4 16.9 7.1 42 6.9 ESE 15 24 8 13 1025.3 1023.5 0.0
18/10:30am 19.3 15.6 6.4 43 6.6 E 15 24 8 13 1025.5 1023.7 0.0
18/10:00am 18.6 15.3 8.0 50 5.5 E 15 22 8 12 1025.7 1023.8 0.0
18/09:30am 18.3 15.5 8.6 53 5.1 ENE 13 19 7 10 1025.8 1023.9 0.0
18/09:00am 17.3 14.2 9.0 58 4.4 NE 15 19 8 10 1025.5 1023.7 0.0
18/08:30am 16.3 13.4 9.5 64 3.6 NE 15 19 8 10 1025.5 1023.7 0.0
18/08:00am 14.7 13.0 9.7 72 2.6 NE 9 13 5 7 1025.5 1023.7 0.0
18/07:30am 11.9 10.0 8.9 82 1.5 ENE 9 11 5 6 1025.0 1023.2 0.0
18/07:00am 10.5 8.0 8.3 86 1.1 ENE 11 13 6 7 1024.7 1022.8 0.0
18/06:30am 9.7 6.7 7.8 88 0.9 E 13 15 7 8 1024.1 1022.2 0.0
18/06:00am 9.6 7.0 7.9 89 0.8 ENE 11 13 6 7 1024.1 1022.2 0.0
18/05:30am 10.0 7.8 7.9 87 1.0 ENE 9 11 5 6 1023.9 1022.0 0.0
18/05:00am 10.4 8.2 8.0 85 1.2 ENE 9 9 5 5 1023.7 1021.8 0.0
18/04:30am 10.4 8.3 8.2 86 1.1 E 9 11 5 6 1023.4 1021.5 0.0
18/04:00am 10.5 8.9 8.1 85 1.2 ENE 6 7 3 4 1022.9 1021.0 0.0
18/03:30am 11.3 8.8 8.2 81 1.6 E 11 13 6 7 1022.7 1020.8 0.0
18/03:00am 11.5 9.0 8.2 80 1.7 ENE 11 15 6 8 1022.8 1020.9 0.0
18/02:30am 11.3 8.8 8.3 82 1.5 ENE 11 13 6 7 1023.0 1021.2 0.0
18/02:00am 11.7 9.2 8.2 79 1.8 E 11 13 6 7 1023.1 1021.3 0.0
18/01:30am 12.3 9.0 8.2 76 2.1 E 15 17 8 9 1023.0 1021.2 0.0
18/01:00am 12.7 9.7 7.8 72 2.5 E 13 19 7 10 1022.9 1021.0 0.0
18/12:30am 12.7 9.8 8.2 74 2.3 E 13 15 7 8 1023.0 1021.2 0.0
18/12:00am 13.3 10.4 8.0 70 2.7 ENE 13 17 7 9 1023.0 1021.2 0.0
 
Date/Time
WST
Temp
°C
App
Temp
°C
Dew
Point
Rel
Hum
%
Delta-T
°C
Wind Press
QNH
hPa
Press
MSL
hPa
Rain
since 9 am
mm
Dir
 
Spd
km/h
Gust
km/h
Spd
kts
Gust
kts
17/11:30pm 13.2 10.4 8.7 74 2.3 ENE 13 17 7 9 1023.0 1021.2 0.0
17/11:00pm 13.2 10.7 9.8 80 1.8 ENE 13 15 7 8 1022.9 1021.0 0.0
17/10:30pm 13.5 11.5 10.1 80 1.8 E 11 13 6 7 1022.9 1021.0 0.0
17/10:00pm 13.9 11.9 10.1 78 2.0 E 11 13 6 7 1023.1 1021.3 0.0
17/09:30pm 13.9 11.9 10.3 79 1.9 ENE 11 13 6 7 1023.2 1021.4 0.0
17/09:00pm 14.8 12.9 10.4 75 2.4 SE 11 17 6 9 1023.5 1021.6 0.0
17/08:30pm 15.1 13.8 10.1 72 2.7 ESE 7 9 4 5 1023.4 1021.5 0.0
17/08:00pm 15.8 14.4 9.7 67 3.2 E 7 7 4 4 1023.0 1021.2 0.0
17/07:30pm 16.6 14.8 9.5 63 3.8 ENE 9 11 5 6 1022.9 1021.0 0.0
17/07:00pm 16.9 15.4 9.3 61 4.0 NE 7 11 4 6 1022.6 1020.7 0.0
17/06:30pm 17.6 15.3 9.0 57 4.6 NE 11 11 6 6 1022.3 1020.4 0.0
17/06:00pm 18.7 16.8 8.9 53 5.2 NE 9 11 5 6 1022.1 1020.2 0.0
17/05:30pm 20.2 16.8 7.6 44 6.6 ENE 15 17 8 9 1021.8 1019.9 0.0
17/05:00pm 21.1 17.6 7.3 41 7.2 E 15 19 8 10 1021.7 1019.8 0.0
17/04:30pm 21.4 17.5 7.3 40 7.4 ESE 17 24 9 13 1021.7 1019.8 0.0
17/04:00pm 21.2 17.6 6.7 39 7.5 SSE 15 22 8 12 1021.9 1020.0 0.0
17/03:30pm 21.4 18.4 7.6 41 7.3 ESE 13 20 7 11 1022.2 1020.3 0.0
17/03:00pm 21.1 17.8 8.0 43 7.0 ESE 15 22 8 12 1022.2 1020.3 0.0
17/02:30pm 20.3 18.1 7.7 44 6.6 SSE 9 17 5 9 1022.4 1020.5 0.0
17/02:00pm 19.9 17.5 8.6 48 6.0 SSE 11 17 6 9 1022.7 1020.8 0.0
17/01:30pm 19.5 17.5 8.8 50 5.7 ESE 9 15 5 8 1022.9 1021.0 0.0
17/01:00pm 19.3 17.4 9.2 52 5.4 ENE 9 19 5 10 1023.5 1021.6 0.0
17/12:30pm 18.3 16.2 9.9 58 4.6 E 11 19 6 10 1024.1 1022.2 0.0
17/12:00pm 18.0 16.4 10.1 60 4.3 NE 9 15 5 8 1024.8 1022.9 0.0
17/11:30am 17.0 15.4 10.1 64 3.7 ESE 9 17 5 9 1025.3 1023.5 0.0
17/11:00am 16.2 13.7 9.8 66 3.4 ESE 13 20 7 11 1026.0 1024.1 0.0
17/10:30am 15.5 13.0 9.6 68 3.1 ESE 13 22 7 12 1026.5 1024.6 0.0
17/10:00am 14.4 11.1 9.6 73 2.5 E 17 22 9 12 1026.8 1024.9 0.0
17/09:30am 13.8 10.5 9.5 75 2.3 E 17 22 9 12 1026.9 1025.1 0.0
17/09:00am 15.5 12.2 10.9 74 2.5 ENE 19 28 10 15 1026.9 1025.1 0.2

Other Formats:

Comma delimited format used in spreadsheet applications
http://www.bom.gov.au/fwo/IDW60801/IDW60801.94449.axf

JavaScript Object Notation format (JSON) in row-major order
http://www.bom.gov.au/fwo/IDW60801/IDW60801.94449.json